Georgia Highway — 7JCV — position and weather

sailwx.info

Track history (hours):
 
Tides and Currents Weather Stations Pressure Air Temp Water Temp Dewpoint Dewpoint Depression Visibility Wind Speed Wind Dir Waves Ship Positions

Georgia Highway

Last reported at 2017-Feb-27 06:33 UTC. Time now 2017-Feb-27 06:53 UTC.
Position N 50°53' W 001°24'.

Length 200 m; draft 9.3 m.

Type: Cargo ship. MMSI: 432629000.

Date/timePositionNaut miles runAvg speedWind from/ knotsBaromVisibWave heightAir tempDewpointWater temp
2017-Feb-27 06:33N 50°53' W 001°24'0 0.0
2017-Feb-27 05:33N 50°53' W 001°24'0 0.0
2017-Feb-27 04:33N 50°53' W 001°24'0 0.0
2017-Feb-27 03:33N 50°53' W 001°24'0 0.0
2017-Feb-27 02:33N 50°53' W 001°24'3 2.5
2017-Feb-27 01:34N 50°51' W 001°21'8 7.8
2017-Feb-27 00:33N 50°46' W 001°12'1111.3
2017-Feb-26 23:33N 50°40' W 000°56'10 9.7
2017-Feb-26 22:33N 50°36' W 000°42'1312.8
2017-Feb-26 21:33N 50°35' W 000°22'1212.3
2017-Feb-26 20:33N 50°33' W 000°03'1212.3
2017-Feb-26 19:33N 50°35' E 000°16'1313.0
2017-Feb-26 18:33N 50°38' E 000°36'1414.4
2017-Feb-26 17:33N 50°47' E 000°53'1514.7
2017-Feb-26 16:34N 50°56' E 001°12'1414.1
2017-Feb-26 15:34N 51°05' E 001°29'1414.1
2017-Feb-26 14:34N 51°14' E 001°46'1313.5
2017-Feb-26 13:33N 51°26' E 001°55'1313.3
2017-Feb-26 12:33N 51°37' E 002°09'1514.7
2017-Feb-26 11:33N 51°47' E 002°26'3717.1
2017-Feb-26 09:22N 52°16' E 003°04'4017.4
2017-Feb-26 07:05N 52°48' E 003°43'2915.4
2017-Feb-26 05:12N 53°08' E 004°18'13114.5
2017-Feb-25 20:11N 53°59' E 007°40'813.0
2017-Feb-25 19:33N 53°53' E 007°50'1010.4
2017-Feb-25 18:33N 53°49' E 008°06'1514.8
2017-Feb-25 17:33N 53°39' E 008°24'7 7.1
2017-Feb-25 16:33N 53°34' E 008°33'0 0.4
2017-Feb-25 15:32N 53°35' E 008°33'0 0.0
2017-Feb-25 14:32N 53°35' E 008°33'0 0.0
2017-Feb-25 13:32N 53°35' E 008°33'0 0.0
2017-Feb-25 12:32N 53°35' E 008°33'0 0.0
2017-Feb-25 11:32N 53°35' E 008°33'0 0.0
2017-Feb-25 10:32N 53°35' E 008°33'0 0.0
2017-Feb-25 09:32N 53°35' E 008°33'0 0.0
2017-Feb-25 08:32N 53°35' E 008°33'0 0.0
2017-Feb-25 07:32N 53°35' E 008°33'0 0.0
2017-Feb-25 06:32N 53°35' E 008°33'0 0.0
2017-Feb-25 05:32N 53°35' E 008°33'0 0.0
2017-Feb-25 04:29N 53°35' E 008°33'0 0.0
2017-Feb-25 03:32N 53°35' E 008°33'0 0.0
2017-Feb-25 02:32N 53°35' E 008°33'0 0.0
2017-Feb-25 01:32N 53°35' E 008°33'0 0.0
2017-Feb-25 00:32N 53°35' E 008°33'0 0.0
2017-Feb-24 23:32N 53°35' E 008°33'0 0.0
2017-Feb-24 22:32N 53°35' E 008°33'0 0.0
2017-Feb-24 21:32N 53°35' E 008°33'0 0.0
2017-Feb-24 20:32N 53°35' E 008°33'0 0.0
2017-Feb-24 19:32N 53°35' E 008°33'0 0.0
2017-Feb-24 18:32N 53°35' E 008°33'0 0.0
2017-Feb-24 17:32N 53°35' E 008°33'0 0.0
2017-Feb-24 16:32N 53°35' E 008°33'0 0.0
2017-Feb-24 15:32N 53°35' E 008°33'0 0.0
2017-Feb-24 14:32N 53°35' E 008°33'0 0.0
2017-Feb-24 13:32N 53°35' E 008°33'0 0.0
2017-Feb-24 12:32N 53°35' E 008°33'0 0.0
2017-Feb-24 11:32N 53°35' E 008°33'0 0.0
2017-Feb-24 10:32N 53°35' E 008°33'0 0.0
2017-Feb-24 09:32N 53°35' E 008°33'0 0.0
2017-Feb-24 08:32N 53°35' E 008°33'0 0.0
2017-Feb-24 07:32N 53°35' E 008°33'0 0.0
2017-Feb-24 06:32N 53°35' E 008°33'0 0.0
2017-Feb-24 05:32N 53°35' E 008°33'1 0.9
2017-Feb-24 04:33N 53°34' E 008°34'0 0.0
2017-Feb-24 03:31N 53°34' E 008°34'0 0.0
2017-Feb-24 02:31N 53°34' E 008°34'0 0.0
2017-Feb-24 01:31N 53°34' E 008°34'0 0.0
2017-Feb-24 00:31N 53°34' E 008°34'0 0.0
2017-Feb-23 23:31N 53°34' E 008°34'0 0.0
2017-Feb-23 22:31N 53°34' E 008°34'0 0.0
2017-Feb-23 21:31N 53°34' E 008°34'0 0.0
2017-Feb-23 20:31N 53°34' E 008°34'0 0.0
2017-Feb-23 19:31N 53°34' E 008°34'0 0.0
2017-Feb-23 18:31N 53°34' E 008°34'0 0.0
2017-Feb-23 17:31N 53°34' E 008°34'0 0.0
2017-Feb-23 16:31N 53°34' E 008°34'0 0.0
2017-Feb-23 15:31N 53°34' E 008°34'0 0.0
2017-Feb-23 14:31N 53°34' E 008°34'0 0.0
2017-Feb-23 13:31N 53°34' E 008°34'0 0.0
2017-Feb-23 12:31N 53°34' E 008°34'0 0.0
2017-Feb-23 11:31N 53°34' E 008°34'0 0.0
2017-Feb-23 10:31N 53°34' E 008°34'0 0.0
2017-Feb-23 09:31N 53°34' E 008°34'0 0.0
2017-Feb-23 08:31N 53°34' E 008°34'0 0.0
2017-Feb-23 07:31N 53°34' E 008°34'0 0.0
2017-Feb-23 06:31N 53°34' E 008°34'0 0.0
2017-Feb-23 05:31N 53°34' E 008°34'0 0.0
2017-Feb-23 04:31N 53°34' E 008°34'0 0.0
2017-Feb-23 03:31N 53°34' E 008°34'0 0.4
2017-Feb-23 02:33N 53°34' E 008°34'0 0.4
2017-Feb-23 01:33N 53°33' E 008°33'8 8.3
2017-Feb-23 00:33N 53°39' E 008°24'1211.7
2017-Feb-22 23:33N 53°47' E 008°09'1110.7
2017-Feb-22 22:33N 53°52' E 007°53'9 9.2
2017-Feb-22 21:33N 53°54' E 007°38'1 1.0
2017-Feb-22 20:17N 53°53' E 007°40'1 1.6
2017-Feb-22 19:33N 53°54' E 007°42'1 1.1
2017-Feb-22 18:33N 53°53' E 007°43'4 3.8
2017-Feb-22 17:32N 53°55' E 007°37'8817.4
2017-Feb-22 12:31N 53°31' E 005°15'3317.1
2017-Feb-22 10:34N 53°10' E 004°31'1817.9
2017-Feb-22 09:33N 52°54' E 004°18'1717.4
2017-Feb-22 08:34N 52°41' E 003°59'7416.8
2017-Feb-22 04:09N 51°42' E 002°44'1017.2
2017-Feb-22 03:33N 51°32' E 002°42'1111.4
2017-Feb-22 02:33N 51°22' E 002°49'1313.3
2017-Feb-22 01:33N 51°24' E 003°10'1413.8
2017-Feb-22 00:33N 51°26' E 003°32'8 7.7
2017-Feb-21 23:33N 51°23' E 003°44'1211.6
2017-Feb-21 22:33N 51°25' E 004°02'1010.1
2017-Feb-21 21:33N 51°20' E 004°16'4 4.2
2017-Feb-21 20:34N 51°16' E 004°17'1 0.7
2017-Feb-21 19:33N 51°16' E 004°16'2 1.9
2017-Feb-21 18:33N 51°16' E 004°13'0 0.0
2017-Feb-21 17:33N 51°16' E 004°13'0 0.0
2017-Feb-21 16:33N 51°16' E 004°13'0 0.0
2017-Feb-21 15:33N 51°16' E 004°13'0 0.0
2017-Feb-21 14:33N 51°16' E 004°13'0 0.0
2017-Feb-21 13:33N 51°16' E 004°13'0 0.0
2017-Feb-21 12:33N 51°16' E 004°13'0 0.0
2017-Feb-21 11:33N 51°16' E 004°13'0 0.0
2017-Feb-21 10:33N 51°16' E 004°13'0 0.0
2017-Feb-21 09:33N 51°16' E 004°13'0 0.0
2017-Feb-21 08:33N 51°16' E 004°13'0 0.0
2017-Feb-21 07:33N 51°16' E 004°13'0 0.0
2017-Feb-21 06:33N 51°16' E 004°13'0 0.0
2017-Feb-21 05:33N 51°16' E 004°13'0 0.0
2017-Feb-21 04:33N 51°16' E 004°13'0 0.0
2017-Feb-21 03:33N 51°16' E 004°13'0 0.0
2017-Feb-21 02:33N 51°16' E 004°13'0 0.0
2017-Feb-21 01:33N 51°16' E 004°13'0 0.0
2017-Feb-21 00:33N 51°16' E 004°13'0 0.0
2017-Feb-20 23:33N 51°16' E 004°13'0 0.0
2017-Feb-20 22:33N 51°16' E 004°13'0 0.0
2017-Feb-20 21:33N 51°16' E 004°13'0 0.0
2017-Feb-20 20:33N 51°16' E 004°13'0 0.0
2017-Feb-20 19:33N 51°16' E 004°13'0 0.0
2017-Feb-20 18:33N 51°16' E 004°13'0 0.0
2017-Feb-20 17:33N 51°16' E 004°13'0 0.0
2017-Feb-20 16:33N 51°16' E 004°13'0 0.0
2017-Feb-20 15:33N 51°16' E 004°13'0 0.0
2017-Feb-20 14:33N 51°16' E 004°13'0 0.0
2017-Feb-20 13:33N 51°16' E 004°13'0 0.0
2017-Feb-20 12:33N 51°16' E 004°13'0 0.0
2017-Feb-20 11:33N 51°16' E 004°13'0 0.0
2017-Feb-20 10:33N 51°16' E 004°13'1 0.6
2017-Feb-20 09:33N 51°17' E 004°13'2 2.3
2017-Feb-20 08:33N 51°16' E 004°17'2 2.1
2017-Feb-20 07:33N 51°18' E 004°17'8 7.9
2017-Feb-20 06:33N 51°22' E 004°07'9 8.6
2017-Feb-20 05:33N 51°21' E 003°53'1111.2
2017-Feb-20 04:33N 51°26' E 003°37'1312.8
2017-Feb-20 03:33N 51°25' E 003°16'1414.1
2017-Feb-20 02:33N 51°22' E 002°54'1312.8
2017-Feb-20 01:34N 51°22' E 002°34'1615.6
2017-Feb-20 00:34N 51°15' E 002°11'1716.8
2017-Feb-19 23:34N 51°07' E 001°48'1716.8
2017-Feb-19 22:34N 50°54' E 001°30'5216.1
2017-Feb-19 19:20N 50°23' E 000°25'1417.4
2017-Feb-19 18:34N 50°21' E 000°04'1716.7
2017-Feb-19 17:34N 50°28' W 000°20'1817.5
2017-Feb-19 16:33N 50°36' W 000°45'1312.8
2017-Feb-19 15:34N 50°43' W 001°01'1211.7
2017-Feb-19 14:33N 50°48' W 001°17'7 7.2
2017-Feb-19 13:34N 50°54' W 001°25'0 0.2
2017-Feb-19 12:31N 50°54' W 001°25'0 0.0
2017-Feb-19 11:31N 50°54' W 001°25'0 0.0
2017-Feb-19 10:31N 50°54' W 001°25'0 0.0
2017-Feb-19 09:31N 50°54' W 001°25'0 0.0
2017-Feb-19 08:31N 50°54' W 001°25'0 0.0
2017-Feb-19 07:31N 50°54' W 001°25'0 0.0
2017-Feb-19 06:31N 50°54' W 001°25'0 0.0
2017-Feb-19 05:28N 50°54' W 001°25'0 0.0
2017-Feb-19 04:31N 50°54' W 001°25'0 0.0
2017-Feb-19 03:31N 50°54' W 001°25'0 0.0
2017-Feb-19 02:31N 50°54' W 001°25'0 0.0
2017-Feb-19 01:31N 50°54' W 001°25'0 0.0
2017-Feb-19 00:31N 50°54' W 001°25'0 0.0
2017-Feb-18 23:31N 50°54' W 001°25'0 0.0
2017-Feb-18 22:31N 50°54' W 001°25'0 0.0
2017-Feb-18 21:31N 50°54' W 001°25'0 0.0
2017-Feb-18 20:31N 50°54' W 001°25'5 5.1
2017-Feb-18 19:34N 50°51' W 001°19'1111.1
2017-Feb-18 18:34N 50°44' W 001°05'8 8.4
2017-Feb-18 17:33N 50°37' W 000°59'1111.1
2017-Feb-18 16:34N 50°26' W 001°01'7 7.4
2017-Feb-18 15:34N 50°26' W 001°13'1817.6
2017-Feb-18 14:33N 50°14' W 001°33'1918.9
2017-Feb-18 13:34N 50°04' W 001°58'1919.3
2017-Feb-18 12:33N 49°57' W 002°25'1919.0
2017-Feb-18 11:33N 49°48' W 002°52'1818.4
2017-Feb-18 10:33N 49°39' W 003°17'1818.2
2017-Feb-18 09:33N 49°30' W 003°41'2018.1
2017-Feb-18 08:26N 49°22' W 004°10'1718.2
2017-Feb-18 07:30N 49°14' W 004°32'1818.1
2017-Feb-18 06:31N 49°04' W 004°55'1818.1
2017-Feb-18 05:33N 48°55' W 005°18'1817.7
2017-Feb-18 04:32N 48°45' W 005°40'1917.8
2017-Feb-18 03:29N 48°28' W 005°52'8016.3
2017-Feb-17 22:33N 47°16' W 006°46'  
Track history (hours):
 
Tides and Currents Weather Stations Pressure Air Temp Water Temp Dewpoint Dewpoint Depression Visibility Wind Speed Wind Dir Waves Ship Positions

Georgia Highway

Last reported at 2017-Feb-27 06:33 UTC. Time now 2017-Feb-27 06:53 UTC.
Position N 50°53' W 001°24'.

Length 200 m; draft 9.3 m.

Type: Cargo ship. MMSI: 432629000.

Date/timePositionNaut miles runAvg speedWind from/ knotsBaromVisibWave heightAir tempDewpointWater temp
2017-Feb-27 06:33N 50°53' W 001°24'0 0.0
2017-Feb-27 05:33N 50°53' W 001°24'0 0.0
2017-Feb-27 04:33N 50°53' W 001°24'0 0.0
2017-Feb-27 03:33N 50°53' W 001°24'0 0.0
2017-Feb-27 02:33N 50°53' W 001°24'3 2.5
2017-Feb-27 01:34N 50°51' W 001°21'8 7.8
2017-Feb-27 00:33N 50°46' W 001°12'1111.3
2017-Feb-26 23:33N 50°40' W 000°56'10 9.7
2017-Feb-26 22:33N 50°36' W 000°42'1312.8
2017-Feb-26 21:33N 50°35' W 000°22'1212.3
2017-Feb-26 20:33N 50°33' W 000°03'1212.3
2017-Feb-26 19:33N 50°35' E 000°16'1313.0
2017-Feb-26 18:33N 50°38' E 000°36'1414.4
2017-Feb-26 17:33N 50°47' E 000°53'1514.7
2017-Feb-26 16:34N 50°56' E 001°12'1414.1
2017-Feb-26 15:34N 51°05' E 001°29'1414.1
2017-Feb-26 14:34N 51°14' E 001°46'1313.5
2017-Feb-26 13:33N 51°26' E 001°55'1313.3
2017-Feb-26 12:33N 51°37' E 002°09'1514.7
2017-Feb-26 11:33N 51°47' E 002°26'3717.1
2017-Feb-26 09:22N 52°16' E 003°04'4017.4
2017-Feb-26 07:05N 52°48' E 003°43'2915.4
2017-Feb-26 05:12N 53°08' E 004°18'13114.5
2017-Feb-25 20:11N 53°59' E 007°40'813.0
2017-Feb-25 19:33N 53°53' E 007°50'1010.4
2017-Feb-25 18:33N 53°49' E 008°06'1514.8
2017-Feb-25 17:33N 53°39' E 008°24'7 7.1
2017-Feb-25 16:33N 53°34' E 008°33'0 0.4
2017-Feb-25 15:32N 53°35' E 008°33'0 0.0
2017-Feb-25 14:32N 53°35' E 008°33'0 0.0
2017-Feb-25 13:32N 53°35' E 008°33'0 0.0
2017-Feb-25 12:32N 53°35' E 008°33'0 0.0
2017-Feb-25 11:32N 53°35' E 008°33'0 0.0
2017-Feb-25 10:32N 53°35' E 008°33'0 0.0
2017-Feb-25 09:32N 53°35' E 008°33'0 0.0
2017-Feb-25 08:32N 53°35' E 008°33'0 0.0
2017-Feb-25 07:32N 53°35' E 008°33'0 0.0
2017-Feb-25 06:32N 53°35' E 008°33'0 0.0
2017-Feb-25 05:32N 53°35' E 008°33'0 0.0
2017-Feb-25 04:29N 53°35' E 008°33'0 0.0
2017-Feb-25 03:32N 53°35' E 008°33'0 0.0
2017-Feb-25 02:32N 53°35' E 008°33'0 0.0
2017-Feb-25 01:32N 53°35' E 008°33'0 0.0
2017-Feb-25 00:32N 53°35' E 008°33'0 0.0
2017-Feb-24 23:32N 53°35' E 008°33'0 0.0
2017-Feb-24 22:32N 53°35' E 008°33'0 0.0
2017-Feb-24 21:32N 53°35' E 008°33'0 0.0
2017-Feb-24 20:32N 53°35' E 008°33'0 0.0
2017-Feb-24 19:32N 53°35' E 008°33'0 0.0
2017-Feb-24 18:32N 53°35' E 008°33'0 0.0
2017-Feb-24 17:32N 53°35' E 008°33'0 0.0
2017-Feb-24 16:32N 53°35' E 008°33'0 0.0
2017-Feb-24 15:32N 53°35' E 008°33'0 0.0
2017-Feb-24 14:32N 53°35' E 008°33'0 0.0
2017-Feb-24 13:32N 53°35' E 008°33'0 0.0
2017-Feb-24 12:32N 53°35' E 008°33'0 0.0
2017-Feb-24 11:32N 53°35' E 008°33'0 0.0
2017-Feb-24 10:32N 53°35' E 008°33'0 0.0
2017-Feb-24 09:32N 53°35' E 008°33'0 0.0
2017-Feb-24 08:32N 53°35' E 008°33'0 0.0
2017-Feb-24 07:32N 53°35' E 008°33'0 0.0
2017-Feb-24 06:32N 53°35' E 008°33'0 0.0
2017-Feb-24 05:32N 53°35' E 008°33'1 0.9
2017-Feb-24 04:33N 53°34' E 008°34'0 0.0
2017-Feb-24 03:31N 53°34' E 008°34'0 0.0
2017-Feb-24 02:31N 53°34' E 008°34'0 0.0
2017-Feb-24 01:31N 53°34' E 008°34'0 0.0
2017-Feb-24 00:31N 53°34' E 008°34'0 0.0
2017-Feb-23 23:31N 53°34' E 008°34'0 0.0
2017-Feb-23 22:31N 53°34' E 008°34'0 0.0
2017-Feb-23 21:31N 53°34' E 008°34'0 0.0
2017-Feb-23 20:31N 53°34' E 008°34'0 0.0
2017-Feb-23 19:31N 53°34' E 008°34'0 0.0
2017-Feb-23 18:31N 53°34' E 008°34'0 0.0
2017-Feb-23 17:31N 53°34' E 008°34'0 0.0
2017-Feb-23 16:31N 53°34' E 008°34'0 0.0
2017-Feb-23 15:31N 53°34' E 008°34'0 0.0
2017-Feb-23 14:31N 53°34' E 008°34'0 0.0
2017-Feb-23 13:31N 53°34' E 008°34'0 0.0
2017-Feb-23 12:31N 53°34' E 008°34'0 0.0
2017-Feb-23 11:31N 53°34' E 008°34'0 0.0
2017-Feb-23 10:31N 53°34' E 008°34'0 0.0
2017-Feb-23 09:31N 53°34' E 008°34'0 0.0
2017-Feb-23 08:31N 53°34' E 008°34'0 0.0
2017-Feb-23 07:31N 53°34' E 008°34'0 0.0
2017-Feb-23 06:31N 53°34' E 008°34'0 0.0
2017-Feb-23 05:31N 53°34' E 008°34'0 0.0
2017-Feb-23 04:31N 53°34' E 008°34'0 0.0
2017-Feb-23 03:31N 53°34' E 008°34'0 0.4
2017-Feb-23 02:33N 53°34' E 008°34'0 0.4
2017-Feb-23 01:33N 53°33' E 008°33'8 8.3
2017-Feb-23 00:33N 53°39' E 008°24'1211.7
2017-Feb-22 23:33N 53°47' E 008°09'1110.7
2017-Feb-22 22:33N 53°52' E 007°53'9 9.2
2017-Feb-22 21:33N 53°54' E 007°38'1 1.0
2017-Feb-22 20:17N 53°53' E 007°40'1 1.6
2017-Feb-22 19:33N 53°54' E 007°42'1 1.1
2017-Feb-22 18:33N 53°53' E 007°43'4 3.8
2017-Feb-22 17:32N 53°55' E 007°37'8817.4
2017-Feb-22 12:31N 53°31' E 005°15'3317.1
2017-Feb-22 10:34N 53°10' E 004°31'1817.9
2017-Feb-22 09:33N 52°54' E 004°18'1717.4
2017-Feb-22 08:34N 52°41' E 003°59'7416.8
2017-Feb-22 04:09N 51°42' E 002°44'1017.2
2017-Feb-22 03:33N 51°32' E 002°42'1111.4
2017-Feb-22 02:33N 51°22' E 002°49'1313.3
2017-Feb-22 01:33N 51°24' E 003°10'1413.8
2017-Feb-22 00:33N 51°26' E 003°32'8 7.7
2017-Feb-21 23:33N 51°23' E 003°44'1211.6
2017-Feb-21 22:33N 51°25' E 004°02'1010.1
2017-Feb-21 21:33N 51°20' E 004°16'4 4.2
2017-Feb-21 20:34N 51°16' E 004°17'1 0.7
2017-Feb-21 19:33N 51°16' E 004°16'2 1.9
2017-Feb-21 18:33N 51°16' E 004°13'0 0.0
2017-Feb-21 17:33N 51°16' E 004°13'0 0.0
2017-Feb-21 16:33N 51°16' E 004°13'0 0.0
2017-Feb-21 15:33N 51°16' E 004°13'0 0.0
2017-Feb-21 14:33N 51°16' E 004°13'0 0.0
2017-Feb-21 13:33N 51°16' E 004°13'0 0.0
2017-Feb-21 12:33N 51°16' E 004°13'0 0.0
2017-Feb-21 11:33N 51°16' E 004°13'0 0.0
2017-Feb-21 10:33N 51°16' E 004°13'0 0.0
2017-Feb-21 09:33N 51°16' E 004°13'0 0.0
2017-Feb-21 08:33N 51°16' E 004°13'0 0.0
2017-Feb-21 07:33N 51°16' E 004°13'0 0.0
2017-Feb-21 06:33N 51°16' E 004°13'0 0.0
2017-Feb-21 05:33N 51°16' E 004°13'0 0.0
2017-Feb-21 04:33N 51°16' E 004°13'0 0.0
2017-Feb-21 03:33N 51°16' E 004°13'0 0.0
2017-Feb-21 02:33N 51°16' E 004°13'0 0.0
2017-Feb-21 01:33N 51°16' E 004°13'0 0.0
2017-Feb-21 00:33N 51°16' E 004°13'0 0.0
2017-Feb-20 23:33N 51°16' E 004°13'0 0.0
2017-Feb-20 22:33N 51°16' E 004°13'0 0.0
2017-Feb-20 21:33N 51°16' E 004°13'0 0.0
2017-Feb-20 20:33N 51°16' E 004°13'0 0.0
2017-Feb-20 19:33N 51°16' E 004°13'0 0.0
2017-Feb-20 18:33N 51°16' E 004°13'0 0.0
2017-Feb-20 17:33N 51°16' E 004°13'0 0.0
2017-Feb-20 16:33N 51°16' E 004°13'0 0.0
2017-Feb-20 15:33N 51°16' E 004°13'0 0.0
2017-Feb-20 14:33N 51°16' E 004°13'0 0.0
2017-Feb-20 13:33N 51°16' E 004°13'0 0.0
2017-Feb-20 12:33N 51°16' E 004°13'0 0.0
2017-Feb-20 11:33N 51°16' E 004°13'0 0.0
2017-Feb-20 10:33N 51°16' E 004°13'1 0.6
2017-Feb-20 09:33N 51°17' E 004°13'2 2.3
2017-Feb-20 08:33N 51°16' E 004°17'2 2.1
2017-Feb-20 07:33N 51°18' E 004°17'8 7.9
2017-Feb-20 06:33N 51°22' E 004°07'9 8.6
2017-Feb-20 05:33N 51°21' E 003°53'1111.2
2017-Feb-20 04:33N 51°26' E 003°37'1312.8
2017-Feb-20 03:33N 51°25' E 003°16'1414.1
2017-Feb-20 02:33N 51°22' E 002°54'1312.8
2017-Feb-20 01:34N 51°22' E 002°34'1615.6
2017-Feb-20 00:34N 51°15' E 002°11'1716.8
2017-Feb-19 23:34N 51°07' E 001°48'1716.8
2017-Feb-19 22:34N 50°54' E 001°30'5216.1
2017-Feb-19 19:20N 50°23' E 000°25'1417.4
2017-Feb-19 18:34N 50°21' E 000°04'1716.7
2017-Feb-19 17:34N 50°28' W 000°20'1817.5
2017-Feb-19 16:33N 50°36' W 000°45'1312.8
2017-Feb-19 15:34N 50°43' W 001°01'1211.7
2017-Feb-19 14:33N 50°48' W 001°17'7 7.2
2017-Feb-19 13:34N 50°54' W 001°25'0 0.2
2017-Feb-19 12:31N 50°54' W 001°25'0 0.0
2017-Feb-19 11:31N 50°54' W 001°25'0 0.0
2017-Feb-19 10:31N 50°54' W 001°25'0 0.0
2017-Feb-19 09:31N 50°54' W 001°25'0 0.0
2017-Feb-19 08:31N 50°54' W 001°25'0 0.0
2017-Feb-19 07:31N 50°54' W 001°25'0 0.0
2017-Feb-19 06:31N 50°54' W 001°25'0 0.0
2017-Feb-19 05:28N 50°54' W 001°25'0 0.0
2017-Feb-19 04:31N 50°54' W 001°25'0 0.0
2017-Feb-19 03:31N 50°54' W 001°25'0 0.0
2017-Feb-19 02:31N 50°54' W 001°25'0 0.0
2017-Feb-19 01:31N 50°54' W 001°25'0 0.0
2017-Feb-19 00:31N 50°54' W 001°25'0 0.0
2017-Feb-18 23:31N 50°54' W 001°25'0 0.0
2017-Feb-18 22:31N 50°54' W 001°25'0 0.0
2017-Feb-18 21:31N 50°54' W 001°25'0 0.0
2017-Feb-18 20:31N 50°54' W 001°25'5 5.1
2017-Feb-18 19:34N 50°51' W 001°19'1111.1
2017-Feb-18 18:34N 50°44' W 001°05'8 8.4
2017-Feb-18 17:33N 50°37' W 000°59'1111.1
2017-Feb-18 16:34N 50°26' W 001°01'7 7.4
2017-Feb-18 15:34N 50°26' W 001°13'1817.6
2017-Feb-18 14:33N 50°14' W 001°33'1918.9
2017-Feb-18 13:34N 50°04' W 001°58'1919.3
2017-Feb-18 12:33N 49°57' W 002°25'1919.0
2017-Feb-18 11:33N 49°48' W 002°52'1818.4
2017-Feb-18 10:33N 49°39' W 003°17'1818.2
2017-Feb-18 09:33N 49°30' W 003°41'2018.1
2017-Feb-18 08:26N 49°22' W 004°10'1718.2
2017-Feb-18 07:30N 49°14' W 004°32'1818.1
2017-Feb-18 06:31N 49°04' W 004°55'1818.1
2017-Feb-18 05:33N 48°55' W 005°18'1817.7
2017-Feb-18 04:32N 48°45' W 005°40'1917.8
2017-Feb-18 03:29N 48°28' W 005°52'8016.3
2017-Feb-17 22:33N 47°16' W 006°46'  

Dump ship's entire track history